Time;durP1;ratioP1;P1;durP2;ratioP2;P2;SDS_P1;SDS_P2;PMS_P1;PMS_P2;Temp;Humidity;BMP_temperature;BMP_pressure;BME280_temperature;BME280_humidity;BME280_pressure;Samples;Min_cycle;Max_cycle;Signal;HPM_P1;HPM_P2
2021/10/07 00:00:08;;;;;;;;;;;;;;;;;;1018130;29;1533;-26
2021/10/07 00:00:42;;;;;;;;;;;;;;;;;;1019208;29;1982;-26
2021/10/07 00:01:12;;;;;;;;;;;;;;;;;;1018961;29;1001;-26
2021/10/07 00:01:43;;;;;;;;;;;;;;;;;;1019164;29;1076;-26
2021/10/07 00:02:13;;;;;;;;;;;;;;;;;;1019066;29;938;-27
2021/10/07 00:02:43;;;;;;;;;;;;;;;;;;1018929;29;1248;-26
2021/10/07 00:03:14;;;;;;;;;;;;;;;;;;1018691;29;922;-26
2021/10/07 00:03:44;;;;;;;;;;;;;;;;;;1018741;29;934;-26
2021/10/07 00:04:15;;;;;;;;;;;;;;;;;;1018385;29;1077;-26
2021/10/07 00:04:45;;;;;;;;;;;;;;;;;;1018446;29;1285;-26
2021/10/07 00:05:16;;;;;;;;;;;;;;;;;;1017981;29;1406;-26
2021/10/07 00:05:47;;;;;;;;;;;;;;;;;;1010323;29;1050;-26
2021/10/07 00:06:18;;;;;;;;;;;;;;;;;;1006631;29;1206;-26
2021/10/07 00:06:48;;;;;;;;;;;;;;;;;;1006531;29;1050;-26
2021/10/07 00:07:18;;;;;;;;;;;;;;;;;;1006728;29;897;-26
2021/10/07 00:07:49;;;;;;;;;;;;;;;;;;1014369;29;1500;-26
2021/10/07 00:08:19;;;;;;;;;;;;;;;;;;1014398;29;1137;-26
2021/10/07 00:08:50;;;;;;;;;;;;;;;;;;1018393;29;1032;-26
2021/10/07 00:09:20;;;;;;;;;;;;;;;;;;1018169;29;1245;-26
2021/10/07 00:09:51;;;;;;;;;;;;;;;;;;1018664;29;1023;-26
2021/10/07 00:10:22;;;;;;;;;;;;;;;;;;1018222;29;957;-26
2021/10/07 00:10:52;;;;;;;;;;;;;;;;;;1019283;29;855;-25
2021/10/07 00:11:22;;;;;;;;;;;;;;;;;;1019140;29;1141;-26
2021/10/07 00:11:53;;;;;;;;;;;;;;;;;;1019025;29;999;-25
2021/10/07 00:12:23;;;;;;;;;;;;;;;;;;1010189;29;1089;-26
2021/10/07 00:12:54;;;;;;;;;;;;;;;;;;1014492;29;1059;-26
2021/10/07 00:13:26;;;;;;;;;;;;;;;;;;1014318;29;1068;-26
2021/10/07 00:13:57;;;;;;;;;;;;;;;;;;1010771;29;1049;-26
2021/10/07 00:14:27;;;;;;;;;;;;;;;;;;1014697;29;972;-26
2021/10/07 00:14:58;;;;;;;;;;;;;;;;;;1018472;29;920;-26
2021/10/07 00:15:29;;;;;;;;;;;;;;;;;;1018358;29;1073;-26
2021/10/07 00:16:00;;;;;;;;;;;;;;;;;;1018945;29;811;-25
2021/10/07 00:16:31;;;;;;;;;;;;;;;;;;1014576;29;1112;-26
2021/10/07 00:17:02;;;;;;;;;;;;;;;;;;1010376;29;1027;-26
2021/10/07 00:17:32;;;;;;;;;;;;;;;;;;1006319;29;1270;-25
2021/10/07 00:18:03;;;;;;;;;;;;;;;;;;1006844;29;976;-26
2021/10/07 00:18:42;;;;;;;;;;;;;;;;;;1010271;29;1139;-25
2021/10/07 00:19:13;;;;;;;;;;;;;;;;;;1008843;29;991;-25
2021/10/07 00:19:43;;;;;;;;;;;;;;;;;;1014190;29;1051;-26
2021/10/07 00:20:14;;;;;;;;;;;;;;;;;;1014530;29;871;-29
2021/10/07 00:20:45;;;;;;;;;;;;;;;;;;1016084;29;1982;-26
2021/10/07 00:21:18;;;;;;;;;;;;;;;;;;1018884;29;975;-26
2021/10/07 00:21:48;;;;;;;;;;;;;;;;;;1019081;29;799;-26
2021/10/07 00:22:19;;;;;;;;;;;;;;;;;;1018747;29;1135;-26
2021/10/07 00:22:49;;;;;;;;;;;;;;;;;;1018925;29;1026;-26
2021/10/07 00:23:24;;;;;;;;;;;;;;;;;;1019065;29;938;-25
2021/10/07 00:24:07;;;;;;;;;;;;;;;;;;1019044;29;964;-26
2021/10/07 00:24:37;;;;;;;;;;;;;;;;;;1019042;29;2796;-26
2021/10/07 00:25:09;;;;;;;;;;;;;;;;;;1018937;29;1383;-26
2021/10/07 00:25:39;;;;;;;;;;;;;;;;;;1019155;29;933;-26
2021/10/07 00:26:09;;;;;;;;;;;;;;;;;;1018703;29;843;-26
2021/10/07 00:26:41;;;;;;;;;;;;;;;;;;1019094;29;880;-26
2021/10/07 00:27:12;;;;;;;;;;;;;;;;;;1019095;29;844;-26
2021/10/07 00:27:42;;;;;;;;;;;;;;;;;;1018398;29;1688;-25
2021/10/07 00:28:12;;;;;;;;;;;;;;;;;;1018970;29;1443;-26
2021/10/07 00:28:43;;;;;;;;;;;;;;;;;;1019103;29;1258;-26
2021/10/07 00:30:08;;;;;;;;;;;;;;;;;;1018738;29;934;-29
2021/10/07 00:30:41;;;;;;;;;;;;;;;;;;1014192;29;971;-26
2021/10/07 00:31:17;;;;;;;;;;;;;;;;;;1014276;29;872;-26
2021/10/07 00:31:52;;;;;;;;;;;;;;;;;;1014486;29;979;-26
2021/10/07 00:32:26;;;;;;;;;;;;;;;;;;1017544;29;990;-26
2021/10/07 00:33:48;;;;;;;;;;;;;;;;;;1020926;29;892;-29
2021/10/07 00:34:39;;;;;;;;;;;;;;;;;;1018791;29;980;-26
2021/10/07 00:36:34;;;;;;;;;;;;;;;;;;1018811;29;1297;-26
2021/10/07 00:39:03;;;;;;;;;;;;;;;;;;1011745;29;1082;-26
2021/10/07 00:39:33;;;;;;;;;;;;;;;;;;1014404;29;1034;-27
2021/10/07 00:40:06;;;;;;;;;;;;;;;;;;1014191;29;1153;-27
2021/10/07 00:40:37;;;;;;;;;;;;;;;;;;1006387;29;1294;-26
2021/10/07 00:41:07;;;;;;;;;;;;;;;;;;1007417;29;1989;-26
2021/10/07 00:41:40;;;;;;;;;;;;;;;;;;1007443;29;1258;-26
2021/10/07 00:42:11;;;;;;;;;;;;;;;;;;1010254;29;1408;-26
2021/10/07 00:42:42;;;;;;;;;;;;;;;;;;1014236;29;951;-26
2021/10/07 00:43:12;;;;;;;;;;;;;;;;;;1014848;29;1053;-26
2021/10/07 00:43:42;;;;;;;;;;;;;;;;;;1018892;29;892;-27
2021/10/07 00:44:13;;;;;;;;;;;;;;;;;;1018963;29;1216;-26
2021/10/07 00:44:46;;;;;;;;;;;;;;;;;;1018694;29;1291;-27
2021/10/07 00:45:17;;;;;;;;;;;;;;;;;;1019087;29;1077;-26
2021/10/07 00:45:55;;;;;;;;;;;;;;;;;;1018836;29;930;-25
2021/10/07 00:46:25;;;;;;;;;;;;;;;;;;1018889;29;856;-27
2021/10/07 00:47:00;;;;;;;;;;;;;;;;;;1018210;29;1180;-27
2021/10/07 00:47:30;;;;;;;;;;;;;;;;;;1018303;29;1002;-26
2021/10/07 00:48:01;;;;;;;;;;;;;;;;;;1018049;29;1155;-26
2021/10/07 00:48:31;;;;;;;;;;;;;;;;;;1018673;29;787;-27
2021/10/07 00:49:01;;;;;;;;;;;;;;;;;;1018623;29;926;-26
2021/10/07 00:49:33;;;;;;;;;;;;;;;;;;1019107;29;900;-27
2021/10/07 00:50:04;;;;;;;;;;;;;;;;;;1018931;29;954;-26
2021/10/07 00:50:34;;;;;;;;;;;;;;;;;;1019094;29;1027;-27
2021/10/07 00:51:05;;;;;;;;;;;;;;;;;;1010271;29;899;-26
2021/10/07 00:51:35;;;;;;;;;;;;;;;;;;1010223;29;1061;-27
2021/10/07 00:52:06;;;;;;;;;;;;;;;;;;1010201;29;1297;-26
2021/10/07 00:52:37;;;;;;;;;;;;;;;;;;1010366;29;1357;-24
2021/10/07 00:53:07;;;;;;;;;;;;;;;;;;1018516;29;1041;-26
2021/10/07 00:53:37;;;;;;;;;;;;;;;;;;1019119;29;832;-27
2021/10/07 00:54:08;;;;;;;;;;;;;;;;;;1018591;29;1344;-26
2021/10/07 00:54:39;;;;;;;;;;;;;;;;;;1018521;29;1178;-27
2021/10/07 00:55:12;;;;;;;;;;;;;;;;;;1018616;29;966;-27
2021/10/07 00:55:42;;;;;;;;;;;;;;;;;;1018585;29;1219;-27
2021/10/07 00:56:14;;;;;;;;;;;;;;;;;;1018647;29;991;-27
2021/10/07 00:56:45;;;;;;;;;;;;;;;;;;1018555;29;1521;-26
2021/10/07 00:57:19;;;;;;;;;;;;;;;;;;1018197;29;1213;-26
2021/10/07 00:57:49;;;;;;;;;;;;;;;;;;1017853;29;1345;-24
2021/10/07 00:58:20;;;;;;;;;;;;;;;;;;1018011;29;1144;-27
2021/10/07 00:58:50;;;;;;;;;;;;;;;;;;1018399;29;915;-27
2021/10/07 00:59:21;;;;;;;;;;;;;;;;;;1018778;29;1083;-27
2021/10/07 00:59:52;;;;;;;;;;;;;;;;;;1018956;29;984;-26
2021/10/07 01:00:22;;;;;;;;;;;;;;;;;;1014226;29;1030;-26
2021/10/07 01:00:53;;;;;;;;;;;;;;;;;;1014145;29;1907;-26
2021/10/07 01:01:23;;;;;;;;;;;;;;;;;;1010429;29;1030;-27
2021/10/07 01:01:54;;;;;;;;;;;;;;;;;;1010097;29;925;-27
2021/10/07 01:02:24;;;;;;;;;;;;;;;;;;1014248;29;1210;-27
2021/10/07 01:02:55;;;;;;;;;;;;;;;;;;1014341;29;921;-26
2021/10/07 01:03:25;;;;;;;;;;;;;;;;;;1014245;29;1031;-26
2021/10/07 01:03:56;;;;;;;;;;;;;;;;;;1014146;29;1142;-30
2021/10/07 01:04:26;;;;;;;;;;;;;;;;;;1014115;29;1424;-26
2021/10/07 01:04:57;;;;;;;;;;;;;;;;;;1014018;29;1210;-27
2021/10/07 01:05:28;;;;;;;;;;;;;;;;;;1018119;29;1231;-26
2021/10/07 01:05:58;;;;;;;;;;;;;;;;;;1018029;29;1052;-26
2021/10/07 01:06:30;;;;;;;;;;;;;;;;;;1018480;29;940;-26
2021/10/07 01:07:01;;;;;;;;;;;;;;;;;;1018216;29;1193;-26
2021/10/07 01:07:32;;;;;;;;;;;;;;;;;;1018866;29;953;-26
2021/10/07 01:08:02;;;;;;;;;;;;;;;;;;1019045;29;959;-27
2021/10/07 01:08:33;;;;;;;;;;;;;;;;;;1018873;29;963;-27
2021/10/07 01:09:04;;;;;;;;;;;;;;;;;;1018789;29;986;-26
2021/10/07 01:09:35;;;;;;;;;;;;;;;;;;1019020;29;871;-27
2021/10/07 01:10:06;;;;;;;;;;;;;;;;;;1018466;29;1457;-26
2021/10/07 01:10:36;;;;;;;;;;;;;;;;;;1018625;29;1240;-27
2021/10/07 01:11:07;;;;;;;;;;;;;;;;;;1014235;29;1131;-27
2021/10/07 01:11:38;;;;;;;;;;;;;;;;;;1014354;29;926;-27
2021/10/07 01:12:08;;;;;;;;;;;;;;;;;;1018149;29;982;-26
2021/10/07 01:12:39;;;;;;;;;;;;;;;;;;1018082;29;864;-27
2021/10/07 01:13:12;;;;;;;;;;;;;;;;;;1018437;29;1056;-27
2021/10/07 01:13:43;;;;;;;;;;;;;;;;;;1017855;29;1339;-26
2021/10/07 01:14:17;;;;;;;;;;;;;;;;;;1017696;29;1174;-27
2021/10/07 01:14:57;;;;;;;;;;;;;;;;;;1018094;29;1101;-26
2021/10/07 01:15:28;;;;;;;;;;;;;;;;;;1017937;29;1362;-26
2021/10/07 01:16:01;;;;;;;;;;;;;;;;;;1018140;29;972;-27
2021/10/07 01:16:33;;;;;;;;;;;;;;;;;;1018090;29;1216;-26
2021/10/07 01:17:03;;;;;;;;;;;;;;;;;;1018736;29;939;-26
2021/10/07 01:17:34;;;;;;;;;;;;;;;;;;1019101;29;874;-26
2021/10/07 01:18:04;;;;;;;;;;;;;;;;;;1018902;29;1084;-26
2021/10/07 01:18:35;;;;;;;;;;;;;;;;;;1018684;29;860;-27
2021/10/07 01:19:05;;;;;;;;;;;;;;;;;;1018968;29;890;-27
2021/10/07 01:19:37;;;;;;;;;;;;;;;;;;1018924;29;896;-27
2021/10/07 01:20:07;;;;;;;;;;;;;;;;;;1019008;29;929;-26
2021/10/07 01:20:38;;;;;;;;;;;;;;;;;;1018404;29;2715;-27
2021/10/07 01:21:12;;;;;;;;;;;;;;;;;;1018932;29;1966;-27
2021/10/07 01:21:42;;;;;;;;;;;;;;;;;;1018959;29;875;-27
2021/10/07 01:22:13;;;;;;;;;;;;;;;;;;1018684;29;952;-27
2021/10/07 01:22:44;;;;;;;;;;;;;;;;;;1018918;29;858;-27
2021/10/07 01:23:14;;;;;;;;;;;;;;;;;;1018437;29;1329;-26
2021/10/07 01:23:45;;;;;;;;;;;;;;;;;;1018791;29;1001;-27
2021/10/07 01:24:20;;;;;;;;;;;;;;;;;;1018619;29;1294;-26
2021/10/07 01:24:51;;;;;;;;;;;;;;;;;;1013841;29;1213;-26
2021/10/07 01:25:21;;;;;;;;;;;;;;;;;;1014367;29;980;-27
2021/10/07 01:25:52;;;;;;;;;;;;;;;;;;1013940;29;1077;-27
2021/10/07 01:26:22;;;;;;;;;;;;;;;;;;1014094;29;1629;-27
2021/10/07 01:26:52;;;;;;;;;;;;;;;;;;1018499;29;1358;-25
2021/10/07 01:27:25;;;;;;;;;;;;;;;;;;1017464;29;1165;-27
2021/10/07 01:27:56;;;;;;;;;;;;;;;;;;1009981;29;1171;-26
2021/10/07 01:28:27;;;;;;;;;;;;;;;;;;1010395;29;1060;-27
2021/10/07 01:28:57;;;;;;;;;;;;;;;;;;1006580;29;1103;-27
2021/10/07 01:29:27;;;;;;;;;;;;;;;;;;1010404;29;1143;-26
2021/10/07 01:29:59;;;;;;;;;;;;;;;;;;1014001;29;946;-27
2021/10/07 01:30:30;;;;;;;;;;;;;;;;;;1014423;29;1193;-27
2021/10/07 01:31:00;;;;;;;;;;;;;;;;;;1018100;29;1404;-27
2021/10/07 01:31:31;;;;;;;;;;;;;;;;;;1018707;29;1391;-26
2021/10/07 01:32:03;;;;;;;;;;;;;;;;;;1018945;29;891;-27
2021/10/07 01:32:34;;;;;;;;;;;;;;;;;;1013740;29;1073;-27
2021/10/07 01:33:05;;;;;;;;;;;;;;;;;;1013937;29;1069;-27
2021/10/07 01:33:35;;;;;;;;;;;;;;;;;;1014347;29;974;-27
2021/10/07 01:34:06;;;;;;;;;;;;;;;;;;1006565;29;1326;-27
2021/10/07 01:34:37;;;;;;;;;;;;;;;;;;1010222;29;1109;-27
2021/10/07 01:35:09;;;;;;;;;;;;;;;;;;1002322;29;952;-27
2021/10/07 01:35:39;;;;;;;;;;;;;;;;;;1003021;29;966;-27
2021/10/07 01:36:10;;;;;;;;;;;;;;;;;;1010341;29;1025;-27
2021/10/07 01:36:41;;;;;;;;;;;;;;;;;;1002652;29;1122;-26
2021/10/07 01:37:12;;;;;;;;;;;;;;;;;;1002475;29;1067;-27
2021/10/07 01:37:42;;;;;;;;;;;;;;;;;;994475;29;1562;-27
2021/10/07 01:38:13;;;;;;;;;;;;;;;;;;991190;29;1091;-25
2021/10/07 01:38:44;;;;;;;;;;;;;;;;;;998750;29;3670;-25
2021/10/07 01:39:14;;;;;;;;;;;;;;;;;;1006206;29;1015;-26
2021/10/07 01:39:44;;;;;;;;;;;;;;;;;;1014166;29;1026;-27
2021/10/07 01:40:15;;;;;;;;;;;;;;;;;;1013662;29;1527;-26
2021/10/07 01:40:45;;;;;;;;;;;;;;;;;;1014923;29;1923;-26
2021/10/07 01:41:16;;;;;;;;;;;;;;;;;;1014926;29;997;-26
2021/10/07 01:41:47;;;;;;;;;;;;;;;;;;1013375;29;1426;-27
2021/10/07 01:42:18;;;;;;;;;;;;;;;;;;1006256;29;1842;-27
2021/10/07 01:42:48;;;;;;;;;;;;;;;;;;1005919;29;1194;-26
2021/10/07 01:43:19;;;;;;;;;;;;;;;;;;1006369;29;1206;-26
2021/10/07 01:43:54;;;;;;;;;;;;;;;;;;1010262;29;868;-27
2021/10/07 01:44:25;;;;;;;;;;;;;;;;;;1014613;29;1530;-27
2021/10/07 01:44:55;;;;;;;;;;;;;;;;;;1014001;29;1018;-26
2021/10/07 01:45:25;;;;;;;;;;;;;;;;;;1014085;29;907;-27
2021/10/07 01:45:56;;;;;;;;;;;;;;;;;;1014051;29;993;-27
2021/10/07 01:46:26;;;;;;;;;;;;;;;;;;1010274;29;1490;-26
2021/10/07 01:46:57;;;;;;;;;;;;;;;;;;1013947;29;1011;-27
2021/10/07 01:47:27;;;;;;;;;;;;;;;;;;1014107;29;1154;-27
2021/10/07 01:47:57;;;;;;;;;;;;;;;;;;1014054;29;1197;-27
2021/10/07 01:48:29;;;;;;;;;;;;;;;;;;1014616;29;1470;-27
2021/10/07 01:48:59;;;;;;;;;;;;;;;;;;1014424;29;963;-26
2021/10/07 01:49:30;;;;;;;;;;;;;;;;;;1015030;29;1037;-27
2021/10/07 01:50:00;;;;;;;;;;;;;;;;;;1014668;29;1048;-27
2021/10/07 01:50:31;;;;;;;;;;;;;;;;;;1014965;29;936;-27
2021/10/07 01:51:01;;;;;;;;;;;;;;;;;;1014673;29;913;-27
2021/10/07 01:51:33;;;;;;;;;;;;;;;;;;1014286;29;1028;-27
2021/10/07 01:52:04;;;;;;;;;;;;;;;;;;1013770;29;1175;-26
2021/10/07 01:52:35;;;;;;;;;;;;;;;;;;1013653;29;1276;-26
2021/10/07 01:53:05;;;;;;;;;;;;;;;;;;1014233;29;1157;-27
2021/10/07 01:53:35;;;;;;;;;;;;;;;;;;1014788;29;936;-27
2021/10/07 01:54:06;;;;;;;;;;;;;;;;;;1015318;29;1037;-27
2021/10/07 01:54:37;;;;;;;;;;;;;;;;;;1018939;29;946;-27
2021/10/07 01:55:09;;;;;;;;;;;;;;;;;;1018671;29;1054;-27
2021/10/07 01:55:39;;;;;;;;;;;;;;;;;;1018045;29;1125;-27
2021/10/07 01:56:09;;;;;;;;;;;;;;;;;;1017825;29;937;-27
2021/10/07 01:56:40;;;;;;;;;;;;;;;;;;1018361;29;1064;-27
2021/10/07 01:57:10;;;;;;;;;;;;;;;;;;1017851;29;986;-27
2021/10/07 01:57:41;;;;;;;;;;;;;;;;;;1018308;29;1167;-26
2021/10/07 01:58:11;;;;;;;;;;;;;;;;;;1018090;29;1409;-27
2021/10/07 01:58:42;;;;;;;;;;;;;;;;;;1014232;29;1107;-27
2021/10/07 01:59:12;;;;;;;;;;;;;;;;;;1013706;29;1005;-27
2021/10/07 01:59:42;;;;;;;;;;;;;;;;;;1014386;29;943;-27
2021/10/07 02:00:13;;;;;;;;;;;;;;;;;;1013622;29;1534;-26
2021/10/07 02:00:43;;;;;;;;;;;;;;;;;;1018860;29;1067;-26
2021/10/07 02:01:14;;;;;;;;;;;;;;;;;;1018514;29;1988;-27
2021/10/07 02:01:44;;;;;;;;;;;;;;;;;;1018857;29;1173;-27
2021/10/07 02:02:14;;;;;;;;;;;;;;;;;;1018613;29;910;-27
2021/10/07 02:02:44;;;;;;;;;;;;;;;;;;1018461;29;1423;-26
2021/10/07 02:03:15;;;;;;;;;;;;;;;;;;1018653;29;800;-27
2021/10/07 02:03:46;;;;;;;;;;;;;;;;;;1018908;29;1084;-27
2021/10/07 02:04:17;;;;;;;;;;;;;;;;;;1017386;29;1590;-27
2021/10/07 02:04:47;;;;;;;;;;;;;;;;;;1010224;29;1128;-27
2021/10/07 02:05:18;;;;;;;;;;;;;;;;;;1010087;29;1156;-27
2021/10/07 02:05:48;;;;;;;;;;;;;;;;;;1010170;29;1177;-27
2021/10/07 02:06:18;;;;;;;;;;;;;;;;;;1014167;29;970;-27
2021/10/07 02:06:49;;;;;;;;;;;;;;;;;;1018607;29;1223;-27
2021/10/07 02:07:20;;;;;;;;;;;;;;;;;;1014039;29;1148;-27
2021/10/07 02:07:51;;;;;;;;;;;;;;;;;;1013991;29;1017;-26
2021/10/07 02:08:21;;;;;;;;;;;;;;;;;;1010128;29;943;-27
2021/10/07 02:08:52;;;;;;;;;;;;;;;;;;1010090;29;1224;-27
2021/10/07 02:09:22;;;;;;;;;;;;;;;;;;1013846;29;1164;-27
2021/10/07 02:09:52;;;;;;;;;;;;;;;;;;1014190;29;958;-27
2021/10/07 02:10:23;;;;;;;;;;;;;;;;;;1018550;29;1759;-27
2021/10/07 02:10:53;;;;;;;;;;;;;;;;;;1017449;29;1540;-27
2021/10/07 02:11:24;;;;;;;;;;;;;;;;;;1017874;29;1203;-27
2021/10/07 02:11:55;;;;;;;;;;;;;;;;;;1013902;29;1111;-27
2021/10/07 02:12:26;;;;;;;;;;;;;;;;;;1013810;29;1039;-27
2021/10/07 02:12:56;;;;;;;;;;;;;;;;;;1005995;29;1457;-27
2021/10/07 02:13:26;;;;;;;;;;;;;;;;;;1006038;29;1313;-27
2021/10/07 02:13:57;;;;;;;;;;;;;;;;;;1006235;29;1161;-27
2021/10/07 02:14:27;;;;;;;;;;;;;;;;;;1009648;29;1512;-27
2021/10/07 02:14:57;;;;;;;;;;;;;;;;;;1018218;29;1092;-27
2021/10/07 02:15:28;;;;;;;;;;;;;;;;;;1018677;29;1200;-27
2021/10/07 02:15:58;;;;;;;;;;;;;;;;;;1017751;29;1334;-26
2021/10/07 02:16:29;;;;;;;;;;;;;;;;;;1018607;29;1067;-27
2021/10/07 02:17:00;;;;;;;;;;;;;;;;;;1017627;29;2480;-27
2021/10/07 02:17:30;;;;;;;;;;;;;;;;;;1017695;29;1330;-27
2021/10/07 02:18:00;;;;;;;;;;;;;;;;;;1017906;29;986;-27
2021/10/07 02:18:31;;;;;;;;;;;;;;;;;;1017872;29;823;-27
2021/10/07 02:19:02;;;;;;;;;;;;;;;;;;1014613;29;967;-27
2021/10/07 02:19:33;;;;;;;;;;;;;;;;;;1013736;29;1485;-27
2021/10/07 02:20:04;;;;;;;;;;;;;;;;;;1013920;29;863;-27
2021/10/07 02:20:34;;;;;;;;;;;;;;;;;;1014028;29;1027;-27
2021/10/07 02:21:04;;;;;;;;;;;;;;;;;;1013737;29;1980;-27
2021/10/07 02:21:35;;;;;;;;;;;;;;;;;;1014439;29;1074;-27
2021/10/07 02:22:06;;;;;;;;;;;;;;;;;;1014673;29;1119;-27
2021/10/07 02:22:37;;;;;;;;;;;;;;;;;;1013675;29;1103;-27
2021/10/07 02:23:07;;;;;;;;;;;;;;;;;;1013788;29;1151;-27
2021/10/07 02:23:38;;;;;;;;;;;;;;;;;;1014180;29;993;-27
2021/10/07 02:24:08;;;;;;;;;;;;;;;;;;1009886;29;1209;-27
2021/10/07 02:24:39;;;;;;;;;;;;;;;;;;1013892;29;1036;-27
2021/10/07 02:25:09;;;;;;;;;;;;;;;;;;1013827;29;1009;-28
2021/10/07 02:25:40;;;;;;;;;;;;;;;;;;1010243;29;967;-27
2021/10/07 02:26:11;;;;;;;;;;;;;;;;;;1009898;29;1017;-27
2021/10/07 02:26:41;;;;;;;;;;;;;;;;;;1010067;29;1075;-26
2021/10/07 02:27:12;;;;;;;;;;;;;;;;;;1010200;29;1025;-27
2021/10/07 02:27:42;;;;;;;;;;;;;;;;;;1014678;29;936;-27
2021/10/07 02:28:13;;;;;;;;;;;;;;;;;;1014471;29;982;-27
2021/10/07 02:28:44;;;;;;;;;;;;;;;;;;1014898;29;867;-27
2021/10/07 02:29:14;;;;;;;;;;;;;;;;;;1014195;29;1386;-27
2021/10/07 02:29:45;;;;;;;;;;;;;;;;;;1014411;29;1302;-27
2021/10/07 02:30:16;;;;;;;;;;;;;;;;;;1014599;29;970;-26
2021/10/07 02:30:47;;;;;;;;;;;;;;;;;;1014672;29;1084;-29
2021/10/07 02:31:18;;;;;;;;;;;;;;;;;;1014077;29;1051;-26
2021/10/07 02:31:48;;;;;;;;;;;;;;;;;;1013759;29;1187;-26
2021/10/07 02:32:18;;;;;;;;;;;;;;;;;;1014165;29;898;-29
2021/10/07 02:32:49;;;;;;;;;;;;;;;;;;1014062;29;997;-29
2021/10/07 02:33:20;;;;;;;;;;;;;;;;;;1009564;29;1289;-29
2021/10/07 02:33:50;;;;;;;;;;;;;;;;;;1010072;29;1249;-29
2021/10/07 02:34:20;;;;;;;;;;;;;;;;;;1012333;29;1200;-29
2021/10/07 02:34:51;;;;;;;;;;;;;;;;;;1013890;29;1095;-29
2021/10/07 02:35:21;;;;;;;;;;;;;;;;;;1018600;29;1363;-29
2021/10/07 02:35:51;;;;;;;;;;;;;;;;;;1017867;29;1421;-28
2021/10/07 02:36:22;;;;;;;;;;;;;;;;;;1018733;29;968;-28
2021/10/07 02:36:53;;;;;;;;;;;;;;;;;;1018183;29;1230;-29
2021/10/07 02:37:23;;;;;;;;;;;;;;;;;;1018667;29;1012;-29
2021/10/07 02:37:54;;;;;;;;;;;;;;;;;;1017774;29;1218;-29
2021/10/07 02:38:24;;;;;;;;;;;;;;;;;;1017991;29;3772;-29
2021/10/07 02:38:55;;;;;;;;;;;;;;;;;;1021879;29;942;-29
2021/10/07 02:39:25;;;;;;;;;;;;;;;;;;1022130;29;943;-29
2021/10/07 02:39:55;;;;;;;;;;;;;;;;;;1018420;29;954;-29
2021/10/07 02:40:27;;;;;;;;;;;;;;;;;;1018754;29;907;-29
2021/10/07 02:40:58;;;;;;;;;;;;;;;;;;1017806;29;1911;-29
2021/10/07 02:41:30;;;;;;;;;;;;;;;;;;1018090;29;903;-29
2021/10/07 02:42:01;;;;;;;;;;;;;;;;;;1017981;29;1076;-28
2021/10/07 02:42:31;;;;;;;;;;;;;;;;;;1010163;29;1178;-29
2021/10/07 02:43:02;;;;;;;;;;;;;;;;;;1014054;29;994;-29
2021/10/07 02:43:33;;;;;;;;;;;;;;;;;;1009712;29;1327;-28
2021/10/07 02:44:03;;;;;;;;;;;;;;;;;;1010038;29;1007;-28
2021/10/07 02:44:34;;;;;;;;;;;;;;;;;;1017839;29;976;-28
2021/10/07 02:45:06;;;;;;;;;;;;;;;;;;1005901;29;1314;-29
2021/10/07 02:45:36;;;;;;;;;;;;;;;;;;1002174;29;968;-28
2021/10/07 02:46:07;;;;;;;;;;;;;;;;;;1002525;29;1088;-28
2021/10/07 02:46:37;;;;;;;;;;;;;;;;;;1002448;29;1098;-28
2021/10/07 02:47:08;;;;;;;;;;;;;;;;;;1006166;29;915;-28
2021/10/07 02:47:39;;;;;;;;;;;;;;;;;;1014110;29;917;-29
2021/10/07 02:48:09;;;;;;;;;;;;;;;;;;1013805;29;1132;-28
2021/10/07 02:48:42;;;;;;;;;;;;;;;;;;1014173;29;1062;-29
2021/10/07 02:49:13;;;;;;;;;;;;;;;;;;1013569;29;978;-28
2021/10/07 02:49:43;;;;;;;;;;;;;;;;;;1015625;29;1002;-28
2021/10/07 02:50:15;;;;;;;;;;;;;;;;;;1018818;29;1040;-29
2021/10/07 02:50:46;;;;;;;;;;;;;;;;;;1010623;29;1537;-28
2021/10/07 02:51:16;;;;;;;;;;;;;;;;;;1010955;29;923;-28
2021/10/07 02:51:47;;;;;;;;;;;;;;;;;;1010872;29;979;-28
2021/10/07 02:52:17;;;;;;;;;;;;;;;;;;1010769;29;1332;-28
2021/10/07 02:52:47;;;;;;;;;;;;;;;;;;1019024;29;1432;-26
2021/10/07 02:53:18;;;;;;;;;;;;;;;;;;1019334;29;1133;-28
2021/10/07 02:53:49;;;;;;;;;;;;;;;;;;1018636;29;1130;-28
2021/10/07 02:54:19;;;;;;;;;;;;;;;;;;1018437;29;987;-28
2021/10/07 02:54:50;;;;;;;;;;;;;;;;;;1014853;29;958;-29
2021/10/07 02:55:20;;;;;;;;;;;;;;;;;;1014700;29;1310;-29
2021/10/07 02:55:51;;;;;;;;;;;;;;;;;;1014172;29;1604;-28
2021/10/07 02:56:22;;;;;;;;;;;;;;;;;;1014849;29;1173;-28
2021/10/07 02:56:53;;;;;;;;;;;;;;;;;;1018087;29;1614;-28
2021/10/07 02:57:24;;;;;;;;;;;;;;;;;;1010748;29;1175;-28
2021/10/07 02:57:55;;;;;;;;;;;;;;;;;;1014543;29;915;-28
2021/10/07 02:58:25;;;;;;;;;;;;;;;;;;1014774;29;965;-28
2021/10/07 02:58:56;;;;;;;;;;;;;;;;;;1014862;29;1201;-29
2021/10/07 02:59:26;;;;;;;;;;;;;;;;;;1019318;29;1110;-28
2021/10/07 02:59:56;;;;;;;;;;;;;;;;;;1019280;29;965;-29
2021/10/07 03:00:27;;;;;;;;;;;;;;;;;;1019808;29;1453;-28
2021/10/07 03:00:57;;;;;;;;;;;;;;;;;;1021586;29;2041;-28
2021/10/07 03:01:28;;;;;;;;;;;;;;;;;;1019405;29;1133;-28
2021/10/07 03:01:59;;;;;;;;;;;;;;;;;;1018597;29;1358;-28
2021/10/07 03:02:29;;;;;;;;;;;;;;;;;;1019579;29;1216;-26
2021/10/07 03:03:00;;;;;;;;;;;;;;;;;;1006828;29;1034;-28
2021/10/07 03:03:31;;;;;;;;;;;;;;;;;;1007048;29;884;-28
2021/10/07 03:04:01;;;;;;;;;;;;;;;;;;1007113;29;969;-28
2021/10/07 03:04:32;;;;;;;;;;;;;;;;;;1010823;29;1316;-28
2021/10/07 03:05:03;;;;;;;;;;;;;;;;;;1019045;29;1631;-28
2021/10/07 03:05:34;;;;;;;;;;;;;;;;;;1019125;29;1206;-28
2021/10/07 03:06:05;;;;;;;;;;;;;;;;;;1019063;29;1284;-28
2021/10/07 03:06:35;;;;;;;;;;;;;;;;;;1014455;29;1097;-25
2021/10/07 03:07:05;;;;;;;;;;;;;;;;;;1014727;29;1054;-28
2021/10/07 03:07:36;;;;;;;;;;;;;;;;;;1014211;29;1515;-28
2021/10/07 03:08:06;;;;;;;;;;;;;;;;;;1014618;29;1048;-28
2021/10/07 03:08:36;;;;;;;;;;;;;;;;;;1019361;29;923;-28
2021/10/07 03:09:07;;;;;;;;;;;;;;;;;;1019208;29;976;-28
2021/10/07 03:09:38;;;;;;;;;;;;;;;;;;1019157;29;875;-28
2021/10/07 03:10:09;;;;;;;;;;;;;;;;;;1014301;29;1343;-28
2021/10/07 03:10:39;;;;;;;;;;;;;;;;;;1014696;29;1072;-28
2021/10/07 03:11:10;;;;;;;;;;;;;;;;;;1014632;29;1161;-28
2021/10/07 03:11:40;;;;;;;;;;;;;;;;;;1014614;29;1272;-26
2021/10/07 03:12:10;;;;;;;;;;;;;;;;;;1019343;29;846;-28
2021/10/07 03:12:41;;;;;;;;;;;;;;;;;;1019314;29;868;-28
2021/10/07 03:13:11;;;;;;;;;;;;;;;;;;1018871;29;2539;-28
2021/10/07 03:13:42;;;;;;;;;;;;;;;;;;1019486;29;846;-28
2021/10/07 03:14:14;;;;;;;;;;;;;;;;;;1022297;29;1101;-28
2021/10/07 03:14:45;;;;;;;;;;;;;;;;;;1022630;29;1106;-28
2021/10/07 03:15:16;;;;;;;;;;;;;;;;;;1022486;28;1210;-28
2021/10/07 03:15:46;;;;;;;;;;;;;;;;;;1022130;29;974;-28
2021/10/07 03:16:16;;;;;;;;;;;;;;;;;;1019239;29;959;-28
2021/10/07 03:16:47;;;;;;;;;;;;;;;;;;1019153;29;1069;-28
2021/10/07 03:17:17;;;;;;;;;;;;;;;;;;1019286;29;1361;-27
2021/10/07 03:17:48;;;;;;;;;;;;;;;;;;1018532;29;1213;-28
2021/10/07 03:18:18;;;;;;;;;;;;;;;;;;1018421;29;1156;-28
2021/10/07 03:18:49;;;;;;;;;;;;;;;;;;1018524;29;1087;-28
2021/10/07 03:19:19;;;;;;;;;;;;;;;;;;1018490;29;1486;-28
2021/10/07 03:19:49;;;;;;;;;;;;;;;;;;1018780;29;1151;-28
2021/10/07 03:20:22;;;;;;;;;;;;;;;;;;1019266;29;1003;-27
2021/10/07 03:20:53;;;;;;;;;;;;;;;;;;1019095;29;1983;-29
2021/10/07 03:21:24;;;;;;;;;;;;;;;;;;1018599;29;1053;-28
2021/10/07 03:21:54;;;;;;;;;;;;;;;;;;1018197;29;985;-27
2021/10/07 03:22:25;;;;;;;;;;;;;;;;;;1018082;29;1258;-28
2021/10/07 03:22:56;;;;;;;;;;;;;;;;;;1018314;29;1077;-28
2021/10/07 03:23:26;;;;;;;;;;;;;;;;;;1014251;29;1341;-28
2021/10/07 03:23:56;;;;;;;;;;;;;;;;;;1014677;29;1362;-28
2021/10/07 03:24:27;;;;;;;;;;;;;;;;;;1014593;29;1284;-28
2021/10/07 03:24:57;;;;;;;;;;;;;;;;;;1018815;29;1460;-28
2021/10/07 03:25:28;;;;;;;;;;;;;;;;;;1018320;29;1195;-26
2021/10/07 03:25:59;;;;;;;;;;;;;;;;;;1018586;29;1148;-28
2021/10/07 03:26:29;;;;;;;;;;;;;;;;;;1014315;29;1039;-28
2021/10/07 03:27:01;;;;;;;;;;;;;;;;;;1014687;29;1087;-29
2021/10/07 03:27:31;;;;;;;;;;;;;;;;;;1010221;29;1472;-29
2021/10/07 03:28:02;;;;;;;;;;;;;;;;;;1011159;29;1067;-29
2021/10/07 03:28:32;;;;;;;;;;;;;;;;;;1018444;29;1185;-28
2021/10/07 03:29:02;;;;;;;;;;;;;;;;;;1018475;29;895;-28
2021/10/07 03:29:33;;;;;;;;;;;;;;;;;;1019221;29;1163;-28
2021/10/07 03:30:04;;;;;;;;;;;;;;;;;;1018095;29;1729;-28
2021/10/07 03:30:35;;;;;;;;;;;;;;;;;;1018053;29;1316;-28
2021/10/07 03:31:05;;;;;;;;;;;;;;;;;;1018520;29;955;-29
2021/10/07 03:31:36;;;;;;;;;;;;;;;;;;1018128;29;1655;-28
2021/10/07 03:32:07;;;;;;;;;;;;;;;;;;1019231;29;1034;-28
2021/10/07 03:32:37;;;;;;;;;;;;;;;;;;1018785;29;1391;-28
2021/10/07 03:33:08;;;;;;;;;;;;;;;;;;1019137;29;985;-28
2021/10/07 03:33:39;;;;;;;;;;;;;;;;;;1018200;29;1260;-29
2021/10/07 03:34:09;;;;;;;;;;;;;;;;;;1018459;29;1168;-28
2021/10/07 03:34:40;;;;;;;;;;;;;;;;;;1018711;29;1026;-29
2021/10/07 03:35:10;;;;;;;;;;;;;;;;;;1018222;29;989;-29
2021/10/07 03:35:40;;;;;;;;;;;;;;;;;;1019209;29;1130;-28
2021/10/07 03:36:11;;;;;;;;;;;;;;;;;;1019336;29;804;-29
2021/10/07 03:36:41;;;;;;;;;;;;;;;;;;1019164;29;980;-28
2021/10/07 03:37:11;;;;;;;;;;;;;;;;;;1019023;29;994;-28
2021/10/07 03:37:42;;;;;;;;;;;;;;;;;;1019359;29;930;-29
2021/10/07 03:38:12;;;;;;;;;;;;;;;;;;1019156;29;919;-28
2021/10/07 03:38:43;;;;;;;;;;;;;;;;;;1019046;29;3707;-29
2021/10/07 03:39:13;;;;;;;;;;;;;;;;;;1018753;29;1408;-28
2021/10/07 03:39:43;;;;;;;;;;;;;;;;;;1019141;29;1045;-28
2021/10/07 03:40:14;;;;;;;;;;;;;;;;;;1019211;29;924;-28
2021/10/07 03:40:44;;;;;;;;;;;;;;;;;;1019034;29;1005;-28